Anda, China
Current Conditions -  °F | °C
As of 3:00 PM on Saturday 25 Oct 2014 (Local Time) from ZYHB Reporting Station
Clear Clear  
Wind Chill: 52°   Ceiling: Unl
Heat Index: 52°   Visibility: 4mi
Dew Point: 37°   Wind: 2mph
Humidity: 58%   Direction: 20°NNE
Pressure: 29.83"   Gusts: NA
Location:  46.4°N, 125.32°E
Report Text: ZYHB 250700Z 02001MPS 6000 NSC 11/03 Q1010 NOSIG
Loading
Personal Weather Stations






























Interactive Weather Map
Tropical Storm Tracking
New forecast layout! Learn more

10-Day Weather Forecast

Advertisements
Track Severe Weather on mobile